Time;durP1;ratioP1;P1;durP2;ratioP2;P2;SDS_P1;SDS_P2;PMS_P1;PMS_P2;Temp;Humidity;BMP_temperature;BMP_pressure;BME280_temperature;BME280_humidity;BME280_pressure;Samples;Min_cycle;Max_cycle;Signal;HPM_P1;HPM_P2
2023/08/22 00:02:51;;;;;;;;;;;23.10;97.00;;;22.08;91.88;100421.84;9753884;29;96916;-90
2023/08/22 00:07:54;;;;;;;;;;;23.00;96.90;;;22.06;91.50;100432.06;9740451;29;97599;-91
2023/08/22 00:12:58;;;;;;;;;;;23.00;96.80;;;22.02;92.06;100424.69;9763198;29;98382;-90
2023/08/22 00:18:02;;;;;;;;;;;22.90;97.70;;;21.97;91.94;100430.78;9721985;29;97531;-91
2023/08/22 00:23:05;;;;;;;;;;;22.80;97.10;;;21.95;91.96;100430.22;9736706;29;97268;-91
2023/08/22 00:28:08;;;;;;;;;;;22.90;96.90;;;21.95;92.63;100429.38;9742601;29;96720;-91
2023/08/22 00:33:12;;;;;;;;;;;22.80;97.70;;;21.88;92.97;100427.59;9756768;29;97134;-91
2023/08/22 00:38:15;;;;;;;;;;;22.80;97.90;;;21.90;92.63;100430.91;9756737;29;97895;-91
2023/08/22 00:43:19;;;;;;;;;;;22.80;97.80;;;21.90;92.68;100439.03;9762371;29;97373;-91
2023/08/22 00:48:23;;;;;;;;;;;22.80;98.20;;;21.86;92.71;100432.44;9737326;29;97754;-90
2023/08/22 00:53:26;;;;;;;;;;;22.80;98.40;;;21.81;92.31;100418.78;9759951;29;97853;-90
2023/08/22 00:58:31;;;;;;;;;;;22.70;98.50;;;21.82;93.20;100425.03;9731785;29;97824;-91
2023/08/22 01:03:36;;;;;;;;;;;22.70;98.40;;;21.82;92.63;100433.13;9767800;29;97591;-90
2023/08/22 01:08:42;;;;;;;;;;;22.70;98.10;;;21.80;93.10;100427.16;9780957;29;97841;-90
2023/08/22 01:13:49;;;;;;;;;;;22.70;98.60;;;21.73;93.61;100427.28;9751805;29;97209;-91
2023/08/22 01:18:53;;;;;;;;;;;22.70;99.00;;;21.71;93.90;100426.69;9741760;29;98386;-91
2023/08/22 01:23:56;;;;;;;;;;;22.50;98.80;;;21.67;93.69;100420.09;9723150;29;96977;-90
2023/08/22 01:29:10;;;;;;;;;;;22.60;99.00;;;21.56;95.44;100421.75;9741995;29;98705;-91
2023/08/22 01:34:23;;;;;;;;;;;22.50;99.90;;;21.48;95.51;100418.56;9698462;29;98693;-91
2023/08/22 01:39:28;;;;;;;;;;;22.40;99.90;;;21.46;95.86;100417.97;9717661;29;96762;-91
2023/08/22 01:44:31;;;;;;;;;;;22.40;99.90;;;21.45;95.69;100414.44;9710742;29;96823;-90
2023/08/22 01:49:37;;;;;;;;;;;22.40;99.90;;;21.48;96.21;100416.69;9722322;29;97512;-91
2023/08/22 01:54:41;;;;;;;;;;;22.40;99.90;;;21.48;96.07;100418.56;9696592;29;97449;-91
2023/08/22 01:59:49;;;;;;;;;;;22.40;99.90;;;21.49;95.98;100407.53;9668559;30;97312;-91
2023/08/22 02:04:52;;;;;;;;;;;22.40;99.90;;;21.51;95.87;100426.22;9710688;29;97645;-90
2023/08/22 02:09:56;;;;;;;;;;;22.40;99.90;;;21.47;96.94;100416.91;9698201;29;96818;-91
2023/08/22 02:14:59;;;;;;;;;;;22.40;99.90;;;21.44;97.64;100415.50;9681129;29;98647;-91
2023/08/22 02:20:04;;;;;;;;;;;22.30;99.90;;;21.37;97.19;100423.72;9686108;29;96910;-91
2023/08/22 02:25:08;;;;;;;;;;;22.30;99.90;;;21.30;97.48;100422.19;9710923;29;97064;-91
2023/08/22 02:30:12;;;;;;;;;;;22.20;99.90;;;21.30;98.32;100416.78;9714107;29;98994;-90
2023/08/22 02:35:15;;;;;;;;;;;22.30;99.90;;;21.23;97.72;100416.03;9756714;29;97152;-91
2023/08/22 02:40:19;;;;;;;;;;;22.20;99.90;;;21.20;97.88;100420.03;9726139;29;98504;-90
2023/08/22 02:45:22;;;;;;;;;;;22.10;99.90;;;21.18;97.75;100424.03;9740980;29;96787;-91
2023/08/22 02:50:26;;;;;;;;;;;22.10;99.90;;;21.18;97.68;100421.31;9749424;29;99089;-91
2023/08/22 02:55:29;;;;;;;;;;;22.20;99.90;;;21.17;97.44;100412.41;9743047;29;98627;-91
2023/08/22 03:00:34;;;;;;;;;;;22.10;99.90;;;21.13;97.92;100421.19;9760389;29;98521;-92
2023/08/22 03:05:38;;;;;;;;;;;22.10;99.90;;;21.08;98.03;100419.19;9748922;29;98177;-92
2023/08/22 03:10:41;;;;;;;;;;;22.00;99.90;;;21.04;98.33;100418.81;9735520;29;98487;-92
2023/08/22 03:15:45;;;;;;;;;;;21.90;99.90;;;21.02;98.61;100412.81;9747388;29;98616;-92
2023/08/22 03:20:49;;;;;;;;;;;22.00;99.90;;;20.99;99.56;100409.75;9752858;29;98773;-92
2023/08/22 03:26:00;;;;;;;;;;;21.90;99.90;;;20.95;99.91;100414.81;9741373;29;98615;-92
2023/08/22 03:31:03;;;;;;;;;;;21.90;99.90;;;20.85;100.00;100417.22;9745491;29;98748;-92
2023/08/22 03:36:07;;;;;;;;;;;21.80;99.90;;;20.76;100.00;100410.53;9741566;29;98923;-89
2023/08/22 03:41:10;;;;;;;;;;;21.70;99.90;;;20.74;100.00;100420.72;9760667;29;96712;-91
2023/08/22 03:46:14;;;;;;;;;;;21.70;99.90;;;20.77;100.00;100417.56;9748346;29;96898;-92
2023/08/22 03:51:34;;;;;;;;;;;21.70;99.90;;;20.84;100.00;100418.28;9763991;29;96503;-92
2023/08/22 03:56:38;;;;;;;;;;;21.80;99.90;;;20.91;100.00;100419.00;9753792;29;97014;-89
2023/08/22 04:01:41;;;;;;;;;;;21.90;99.90;;;20.94;100.00;100423.97;9754763;29;96959;-92
2023/08/22 04:06:45;;;;;;;;;;;22.00;99.90;;;20.97;100.00;100428.91;9751764;29;97690;-92
2023/08/22 04:11:48;;;;;;;;;;;22.00;99.90;;;20.98;100.00;100429.72;9767040;29;96744;-92
2023/08/22 04:16:52;;;;;;;;;;;22.00;99.90;;;20.96;100.00;100429.94;9735455;29;97092;-91
2023/08/22 04:21:55;;;;;;;;;;;21.90;99.90;;;20.94;100.00;100423.97;9734115;29;98516;-91
2023/08/22 04:26:59;;;;;;;;;;;21.90;99.90;;;20.92;100.00;100426.06;9745163;29;96769;-88
2023/08/22 04:32:03;;;;;;;;;;;21.90;99.90;;;20.89;100.00;100420.31;9731474;29;99294;-91
2023/08/22 04:37:07;;;;;;;;;;;21.80;99.90;;;20.92;100.00;100426.06;9754559;29;98299;-91
2023/08/22 04:42:10;;;;;;;;;;;21.80;99.90;;;20.98;100.00;100429.72;9740729;29;97892;-92
2023/08/22 04:47:14;;;;;;;;;;;21.90;99.90;;;21.06;100.00;100430.22;9770975;29;97821;-90
2023/08/22 04:52:17;;;;;;;;;;;22.00;99.90;;;21.19;100.00;100431.91;9786266;29;96665;-91
2023/08/22 04:57:23;;;;;;;;;;;22.20;99.90;;;21.27;100.00;100438.84;9760495;29;96659;-93
2023/08/22 05:02:28;;;;;;;;;;;22.30;99.90;;;21.40;100.00;100452.16;9796749;29;95998;-93
2023/08/22 05:07:32;;;;;;;;;;;22.30;99.90;;;21.44;100.00;100439.84;9746331;29;99057;-94
2023/08/22 05:12:35;;;;;;;;;;;22.40;99.90;;;21.61;100.00;100451.63;9752741;29;97038;-94
2023/08/22 05:17:42;;;;;;;;;;;22.50;99.90;;;21.75;100.00;100462.19;9746499;29;97307;-93
2023/08/22 05:22:46;;;;;;;;;;;22.70;99.90;;;21.88;100.00;100456.53;9760922;29;98298;-93
2023/08/22 05:27:50;;;;;;;;;;;22.80;99.90;;;22.06;99.49;100461.81;9726473;29;97749;-93
2023/08/22 05:32:53;;;;;;;;;;;23.00;99.90;;;22.16;98.63;100453.16;9738207;29;98067;-92
2023/08/22 05:37:57;;;;;;;;;;;23.10;99.90;;;22.33;98.27;100451.34;9741505;29;97680;-93
2023/08/22 05:43:00;;;;;;;;;;;23.30;99.90;;;22.47;97.15;100460.00;9741157;29;96920;-91
2023/08/22 05:48:04;;;;;;;;;;;23.40;99.90;;;22.59;95.92;100463.50;9726274;29;96810;-90
2023/08/22 05:53:08;;;;;;;;;;;23.60;99.90;;;22.73;94.89;100458.66;9752420;29;97282;-91
2023/08/22 05:58:11;;;;;;;;;;;23.70;99.90;;;22.85;93.80;100462.13;9732351;29;96784;-90
2023/08/22 06:03:15;;;;;;;;;;;23.80;99.90;;;23.03;93.75;100469.28;9718034;29;97628;-92
2023/08/22 06:08:18;;;;;;;;;;;24.00;99.90;;;23.21;91.89;100471.78;9744014;29;98408;-91
2023/08/22 06:13:23;;;;;;;;;;;24.20;99.90;;;23.36;91.93;100459.53;9749224;29;96979;-91
2023/08/22 06:18:26;;;;;;;;;;;24.40;99.90;;;23.57;90.93;100464.22;9748712;29;97264;-91
2023/08/22 06:23:30;;;;;;;;;;;24.60;99.90;;;23.79;89.84;100458.06;9748871;29;98642;-91
2023/08/22 06:28:33;;;;;;;;;;;24.80;99.90;;;23.99;88.94;100455.63;9748373;29;96786;-90
2023/08/22 06:33:37;;;;;;;;;;;25.00;99.90;;;24.23;88.24;100454.34;9734184;29;98647;-91
2023/08/22 06:38:41;;;;;;;;;;;25.30;99.90;;;24.50;87.01;100457.16;9753568;29;96795;-91
2023/08/22 06:43:44;;;;;;;;;;;25.50;99.90;;;24.75;85.61;100461.25;9741903;29;97295;-91
2023/08/22 06:49:14;;;;;;;;;;;25.70;99.90;;;24.93;81.93;100457.34;9748113;29;96710;-91
2023/08/22 06:54:17;;;;;;;;;;;25.90;99.90;;;25.13;82.00;100454.88;9751764;29;97849;-89
2023/08/22 06:59:21;;;;;;;;;;;26.10;99.90;;;25.34;80.08;100451.25;9753213;29;96875;-89
2023/08/22 07:04:24;;;;;;;;;;;26.40;99.80;;;25.58;81.24;100457.16;9752006;29;96888;-90
2023/08/22 07:09:28;;;;;;;;;;;26.60;99.90;;;25.79;80.11;100460.88;9746733;29;96676;-88
2023/08/22 07:14:31;;;;;;;;;;;26.80;99.70;;;25.96;78.99;100457.97;9747756;29;97495;-89
2023/08/22 07:19:35;;;;;;;;;;;27.00;99.40;;;26.17;77.76;100464.34;9742995;29;98643;-89
2023/08/22 07:24:44;;;;;;;;;;;27.20;99.00;;;26.34;77.33;100456.81;9739201;29;96798;-89
2023/08/22 07:29:48;;;;;;;;;;;27.30;98.90;;;26.51;76.00;100448.47;9747704;29;96892;-89
2023/08/22 07:34:52;;;;;;;;;;;27.50;98.50;;;26.75;75.96;100446.09;9737606;29;97281;-89
2023/08/22 07:39:56;;;;;;;;;;;27.70;98.40;;;26.88;74.46;100436.56;9752574;29;98866;-89
2023/08/22 07:45:00;;;;;;;;;;;27.90;98.00;;;27.18;73.68;100446.72;9757118;29;97245;-89
2023/08/22 07:50:04;;;;;;;;;;;28.20;97.80;;;27.33;69.64;100434.97;9750774;29;96855;-89
2023/08/22 07:55:07;;;;;;;;;;;28.40;96.90;;;27.49;69.97;100425.69;9751393;29;98165;-89
2023/08/22 08:00:12;;;;;;;;;;;28.50;96.10;;;27.70;69.83;100440.16;9749566;29;98486;-89
2023/08/22 08:05:15;;;;;;;;;;;28.70;96.20;;;27.85;68.11;100426.50;9749885;29;97771;-88
2023/08/22 08:10:19;;;;;;;;;;;28.90;95.90;;;28.06;66.79;100440.06;9748442;29;96643;-88
2023/08/22 08:15:22;;;;;;;;;;;29.10;95.00;;;28.19;65.42;100434.88;9737005;29;96796;-88
2023/08/22 08:20:26;;;;;;;;;;;29.20;94.20;;;28.37;64.68;100440.81;9716440;29;96676;-88
2023/08/22 08:25:30;;;;;;;;;;;29.40;94.00;;;28.46;62.98;100445.41;9761761;29;98413;-88
2023/08/22 08:30:34;;;;;;;;;;;29.50;93.80;;;28.56;62.58;100446.47;9740750;29;98482;-85
2023/08/22 08:35:38;;;;;;;;;;;29.60;92.80;;;28.74;61.94;100438.44;9732267;29;97937;-84
2023/08/22 08:40:42;;;;;;;;;;;29.70;93.20;;;28.90;61.40;100441.06;9735683;29;98909;-85
2023/08/22 08:45:49;;;;;;;;;;;29.90;92.90;;;29.01;61.98;100440.75;9737462;29;98667;-86
2023/08/22 08:50:53;;;;;;;;;;;30.00;92.60;;;29.22;61.38;100424.19;9759312;29;96806;-87
2023/08/22 08:55:56;;;;;;;;;;;30.20;92.40;;;29.44;61.46;100421.78;9755879;29;96747;-86
2023/08/22 09:01:00;;;;;;;;;;;30.40;92.10;;;29.67;60.56;100422.97;9743130;29;97004;-87
2023/08/22 09:06:04;;;;;;;;;;;30.60;91.40;;;29.71;59.02;100418.56;9749569;29;98004;-86
2023/08/22 09:11:07;;;;;;;;;;;30.70;91.10;;;29.90;58.08;100417.81;9748192;29;96724;-86
2023/08/22 09:16:10;;;;;;;;;;;30.90;91.00;;;30.13;59.29;100410.72;9752272;29;97137;-86
2023/08/22 09:21:16;;;;;;;;;;;31.10;90.40;;;30.35;56.29;100413.72;9747085;29;96710;-86
2023/08/22 09:26:24;;;;;;;;;;;31.30;90.20;;;30.44;56.86;100405.66;9743599;29;98729;-86
2023/08/22 09:31:28;;;;;;;;;;;31.40;89.80;;;30.53;56.05;100401.97;9737889;29;99657;-86
2023/08/22 09:36:32;;;;;;;;;;;31.50;88.70;;;30.63;57.19;100396.31;9746315;29;97350;-86
2023/08/22 09:41:35;;;;;;;;;;;31.60;88.80;;;30.79;55.02;100385.16;9735753;29;98952;-86
2023/08/22 09:46:42;;;;;;;;;;;31.80;87.80;;;30.91;56.14;100378.09;9737726;29;97002;-86
2023/08/22 09:51:48;;;;;;;;;;;31.90;87.40;;;31.02;56.00;100376.00;9732656;29;97510;-86
2023/08/22 09:56:51;;;;;;;;;;;32.00;87.30;;;31.22;53.32;100361.09;9731046;29;98973;-87
2023/08/22 10:01:55;;;;;;;;;;;32.20;85.90;;;31.37;54.19;100360.06;9734661;29;98719;-85
2023/08/22 10:06:59;;;;;;;;;;;32.40;85.30;;;31.70;52.68;100361.59;9751416;29;99337;-86
2023/08/22 10:12:06;;;;;;;;;;;32.70;83.50;;;31.81;53.08;100347.69;9736873;29;97643;-86
2023/08/22 10:17:12;;;;;;;;;;;32.80;83.50;;;32.02;51.83;100350.81;9730135;29;98615;-85
2023/08/22 10:22:16;;;;;;;;;;;32.90;82.60;;;32.00;50.94;100342.91;9740729;29;98788;-87
2023/08/22 10:27:20;;;;;;;;;;;33.10;81.70;;;32.23;52.63;100339.09;9733422;29;98828;-87
2023/08/22 10:32:23;;;;;;;;;;;33.20;82.50;;;32.47;50.05;100338.03;9735695;29;96751;-86
2023/08/22 10:37:28;;;;;;;;;;;33.50;81.50;;;32.36;49.37;100344.91;9737902;29;98803;-87
2023/08/22 10:42:31;;;;;;;;;;;33.40;79.90;;;32.37;50.45;100341.00;9755073;29;97530;-87
2023/08/22 10:47:35;;;;;;;;;;;33.50;80.10;;;32.62;49.65;100336.84;9748842;29;98324;-86
2023/08/22 10:52:39;;;;;;;;;;;33.70;79.50;;;32.66;48.08;100327.66;9749289;29;96786;-88
2023/08/22 10:57:47;;;;;;;;;;;33.80;76.20;;;32.75;49.96;100323.06;9730444;29;98179;-88
2023/08/22 11:03:01;;;;;;;;;;;33.80;78.50;;;33.06;50.69;100324.25;9721786;29;98446;-87
2023/08/22 11:08:05;;;;;;;;;;;34.00;78.70;;;33.14;47.05;100320.72;9745126;29;98787;-87
2023/08/22 11:13:08;;;;;;;;;;;34.20;76.70;;;33.26;47.98;100313.50;9770094;29;97118;-87
2023/08/22 11:18:13;;;;;;;;;;;34.20;75.40;;;33.22;46.46;100311.69;9737051;29;97729;-88
2023/08/22 11:23:16;;;;;;;;;;;34.30;75.10;;;33.32;46.70;100314.16;9750195;29;96882;-87
2023/08/22 11:28:29;;;;;;;;;;;34.30;74.60;;;33.43;43.55;100307.28;9765470;29;97117;-88
2023/08/22 11:33:34;;;;;;;;;;;34.40;71.80;;;33.45;42.32;100305.03;9740794;29;99266;-87
2023/08/22 11:38:42;;;;;;;;;;;34.40;68.60;;;33.65;42.21;100297.28;9741317;29;98813;-88
2023/08/22 11:43:58;;;;;;;;;;;34.50;68.80;;;33.75;39.37;100281.28;9727872;29;98929;-85
2023/08/22 11:49:07;;;;;;;;;;;34.80;65.90;;;34.01;39.75;100291.59;9714924;29;97794;-86
2023/08/22 11:54:22;;;;;;;;;;;34.90;64.70;;;34.19;38.81;100284.16;9746049;29;98175;-88
2023/08/22 11:59:26;;;;;;;;;;;35.00;66.70;;;34.25;37.02;100282.84;9738123;29;98674;-86
2023/08/22 12:04:42;;;;;;;;;;;35.20;64.30;;;34.28;38.27;100276.66;9754126;29;96860;-85
2023/08/22 12:10:03;;;;;;;;;;;35.20;63.90;;;34.39;37.36;100280.72;9737428;29;97463;-86
2023/08/22 12:15:07;;;;;;;;;;;35.30;63.80;;;34.46;37.52;100269.22;9748702;29;98373;-87
2023/08/22 12:20:10;;;;;;;;;;;35.40;63.50;;;34.57;38.14;100273.28;9753310;29;96746;-86
2023/08/22 12:25:14;;;;;;;;;;;35.50;62.80;;;34.71;37.80;100262.84;9745138;29;99009;-87
2023/08/22 12:30:18;;;;;;;;;;;35.60;61.80;;;34.67;37.84;100250.88;9755952;29;96807;-88
2023/08/22 12:35:21;;;;;;;;;;;35.60;62.10;;;34.62;37.32;100256.56;9719834;29;99031;-88
2023/08/22 12:40:25;;;;;;;;;;;35.60;61.20;;;34.58;37.53;100247.31;9722520;29;100872;-86
2023/08/22 12:45:29;;;;;;;;;;;35.60;61.80;;;34.82;38.71;100236.53;9742092;29;98697;-86
2023/08/22 12:50:33;;;;;;;;;;;35.80;62.70;;;35.13;37.59;100241.00;9750046;29;97456;-86
2023/08/22 12:55:40;;;;;;;;;;;36.00;61.60;;;35.28;35.38;100226.63;9730060;29;97648;-86
2023/08/22 13:00:44;;;;;;;;;;;36.30;60.50;;;35.26;35.21;100226.13;9733685;29;97551;-86
2023/08/22 13:05:48;;;;;;;;;;;36.20;59.10;;;35.24;37.52;100230.38;9731656;29;98668;-84
2023/08/22 13:10:54;;;;;;;;;;;36.10;60.50;;;35.25;36.66;100220.97;9751753;29;97420;-86
2023/08/22 13:15:57;;;;;;;;;;;36.20;60.10;;;35.30;37.75;100212.47;9713154;29;98678;-87
2023/08/22 13:21:11;;;;;;;;;;;36.20;60.70;;;35.09;34.73;100206.91;9727887;29;98686;-86
2023/08/22 13:26:16;;;;;;;;;;;36.10;58.80;;;35.11;35.53;100210.16;9744517;29;98116;-85
2023/08/22 13:31:20;;;;;;;;;;;36.30;58.50;;;35.22;35.14;100211.41;9729345;29;98646;-88
2023/08/22 13:36:24;;;;;;;;;;;36.50;57.10;;;35.43;35.51;100200.41;9732707;29;97680;-84
2023/08/22 13:41:27;;;;;;;;;;;36.60;58.00;;;35.72;35.57;100191.28;9731095;29;98289;-85
2023/08/22 13:46:31;;;;;;;;;;;36.80;58.30;;;35.93;33.56;100191.31;9744224;29;99047;-86
2023/08/22 13:51:34;;;;;;;;;;;37.00;55.50;;;35.88;32.96;100194.25;9735759;29;98817;-86
2023/08/22 13:56:38;;;;;;;;;;;36.80;56.80;;;35.86;34.35;100182.69;9735714;29;97112;-86
2023/08/22 14:01:41;;;;;;;;;;;36.80;57.30;;;35.92;35.61;100184.94;9731699;29;96831;-86
2023/08/22 14:06:47;;;;;;;;;;;36.80;57.90;;;35.94;34.31;100186.59;9755741;29;96794;-87
2023/08/22 14:11:51;;;;;;;;;;;37.10;57.00;;;36.01;33.99;100170.25;9736414;29;97767;-88
2023/08/22 14:16:54;;;;;;;;;;;37.30;56.50;;;36.06;33.37;100172.81;9713835;29;98104;-89
2023/08/22 14:21:59;;;;;;;;;;;37.60;54.20;;;36.25;33.42;100169.53;9734269;29;96655;-87
2023/08/22 14:27:02;;;;;;;;;;;37.80;54.80;;;36.61;32.80;100172.44;9740478;29;97364;-88
2023/08/22 14:32:06;;;;;;;;;;;38.40;54.90;;;37.05;31.62;100163.59;9753925;29;96887;-88
2023/08/22 14:37:09;;;;;;;;;;;39.10;54.70;;;37.77;30.74;100161.88;9733757;29;97774;-87
2023/08/22 14:42:28;;;;;;;;;;;39.80;51.10;;;37.99;28.80;100153.06;9751146;29;98171;-88
2023/08/22 14:47:32;;;;;;;;;;;40.20;51.50;;;38.52;29.30;100148.19;9734102;29;97278;-87
2023/08/22 14:52:37;;;;;;;;;;;40.60;50.90;;;38.79;28.78;100140.13;9729944;29;98252;-88
2023/08/22 14:57:41;;;;;;;;;;;41.00;50.20;;;39.48;29.44;100138.59;9742910;29;97452;-89
2023/08/22 15:02:45;;;;;;;;;;;41.40;51.90;;;39.39;27.55;100140.75;9748446;29;97377;-89
2023/08/22 15:07:48;;;;;;;;;;;41.50;49.30;;;39.11;27.39;100140.91;9754457;29;96764;-87
2023/08/22 15:13:05;;;;;;;;;;;41.20;49.30;;;39.33;28.69;100143.03;9719465;29;97704;-88
2023/08/22 15:18:09;;;;;;;;;;;41.20;50.30;;;39.60;26.12;100132.09;9745968;29;96960;-88
2023/08/22 15:23:13;;;;;;;;;;;41.50;49.00;;;39.78;27.54;100146.41;9759698;29;97218;-88
2023/08/22 15:28:18;;;;;;;;;;;41.50;48.90;;;39.81;27.55;100143.66;9747641;29;96690;-88
2023/08/22 15:33:21;;;;;;;;;;;41.70;48.60;;;39.55;25.67;100138.75;9743008;29;97665;-88
2023/08/22 15:38:34;;;;;;;;;;;41.50;47.60;;;39.57;25.28;100127.25;9756952;29;96905;-86
2023/08/22 15:43:37;;;;;;;;;;;41.40;47.10;;;39.57;26.18;100136.38;9735126;29;97193;-87
2023/08/22 15:48:41;;;;;;;;;;;41.30;46.30;;;39.42;25.90;100134.50;9731079;29;98180;-87
2023/08/22 15:53:44;;;;;;;;;;;41.00;46.60;;;39.15;25.88;100124.31;9768573;29;96678;-87
2023/08/22 15:58:47;;;;;;;;;;;40.70;46.20;;;38.80;25.35;100120.31;9767055;29;97136;-87
2023/08/22 16:03:51;;;;;;;;;;;40.40;47.00;;;38.63;26.45;100131.00;9751304;29;96604;-87
2023/08/22 16:08:55;;;;;;;;;;;40.10;47.20;;;38.38;26.85;100120.03;9755214;29;97726;-87
2023/08/22 16:13:59;;;;;;;;;;;40.00;46.70;;;38.16;27.08;100118.66;9751717;29;96638;-87
2023/08/22 16:19:02;;;;;;;;;;;39.70;47.40;;;37.97;27.06;100124.88;9752092;29;97677;-86
2023/08/22 16:24:06;;;;;;;;;;;39.50;47.10;;;37.57;28.79;100127.66;9737518;29;97001;-87
2023/08/22 16:29:09;;;;;;;;;;;39.10;48.10;;;37.18;29.97;100121.69;9741454;29;97329;-87
2023/08/22 16:34:15;;;;;;;;;;;38.60;48.90;;;36.68;31.50;100116.50;9743949;29;97890;-86
2023/08/22 16:39:19;;;;;;;;;;;38.20;49.60;;;36.10;32.83;100112.88;9756378;29;96874;-86
2023/08/22 16:44:25;;;;;;;;;;;37.70;50.50;;;35.45;34.46;100114.41;9764388;29;97049;-86
2023/08/22 16:49:28;;;;;;;;;;;37.00;51.20;;;34.76;35.88;100110.06;9750596;29;96630;-86
2023/08/22 16:54:32;;;;;;;;;;;36.30;52.60;;;34.02;37.50;100114.00;9794569;29;96632;-86
2023/08/22 16:59:35;;;;;;;;;;;35.50;53.60;;;33.26;38.88;100117.97;9752223;29;96636;-86
2023/08/22 17:04:39;;;;;;;;;;;34.60;54.80;;;32.54;41.21;100115.63;9725276;29;96809;-86
2023/08/22 17:09:43;;;;;;;;;;;33.80;56.90;;;31.90;42.98;100129.56;9725963;29;97514;-86
2023/08/22 17:14:46;;;;;;;;;;;33.10;58.60;;;31.37;44.71;100121.19;9736450;29;98667;-86
2023/08/22 17:19:50;;;;;;;;;;;32.50;59.10;;;30.95;45.62;100125.88;9742086;29;97755;-85
2023/08/22 17:24:53;;;;;;;;;;;32.00;59.80;;;30.62;46.25;100125.94;9738933;29;97298;-85
2023/08/22 17:29:57;;;;;;;;;;;31.70;60.70;;;30.31;47.66;100131.16;9751245;29;97220;-85
2023/08/22 17:35:00;;;;;;;;;;;31.30;63.00;;;30.10;48.56;100121.59;9722505;29;98627;-85
2023/08/22 17:40:04;;;;;;;;;;;31.00;64.10;;;29.92;50.19;100128.75;9732604;29;98463;-85
2023/08/22 17:45:09;;;;;;;;;;;30.80;65.90;;;29.73;50.85;100128.75;9754671;29;97887;-85
2023/08/22 17:50:12;;;;;;;;;;;30.50;66.00;;;29.55;52.06;100138.59;9749152;29;96943;-85
2023/08/22 17:55:16;;;;;;;;;;;30.30;67.10;;;29.36;52.84;100137.75;9733034;29;97422;-85
2023/08/22 18:00:22;;;;;;;;;;;30.10;67.70;;;29.17;53.35;100140.47;9749902;29;97269;-85
2023/08/22 18:05:26;;;;;;;;;;;29.90;68.10;;;28.94;54.71;100138.56;9735494;29;98777;-84
2023/08/22 18:10:29;;;;;;;;;;;29.60;70.20;;;28.73;55.91;100141.50;9754978;29;97057;-85
2023/08/22 18:15:33;;;;;;;;;;;29.40;70.60;;;28.56;56.84;100132.91;9726796;29;97761;-84
2023/08/22 18:20:36;;;;;;;;;;;29.20;71.20;;;28.43;57.17;100139.03;9750359;29;97536;-83
2023/08/22 18:25:40;;;;;;;;;;;29.10;70.70;;;28.32;58.64;100153.94;9753554;29;98882;-83
2023/08/22 18:30:43;;;;;;;;;;;29.00;73.00;;;28.16;59.38;100145.81;9741695;29;96936;-85
2023/08/22 18:35:47;;;;;;;;;;;28.90;73.20;;;28.01;61.08;100145.94;9745032;29;99530;-85
2023/08/22 18:40:54;;;;;;;;;;;28.70;74.50;;;27.79;60.88;100134.63;9746740;29;97812;-84
2023/08/22 18:45:57;;;;;;;;;;;28.50;76.20;;;27.71;62.04;100149.72;9739803;29;96766;-84
2023/08/22 18:51:01;;;;;;;;;;;28.40;75.60;;;27.60;62.62;100165.28;9736767;29;96804;-84
2023/08/22 18:56:04;;;;;;;;;;;28.30;76.10;;;27.45;62.79;100157.97;9748106;29;98678;-84
2023/08/22 19:01:12;;;;;;;;;;;28.10;75.50;;;27.33;63.24;100175.78;9735754;29;97207;-85
2023/08/22 19:06:16;;;;;;;;;;;28.10;74.00;;;27.21;64.44;100174.19;9731780;29;97059;-84
2023/08/22 19:11:19;;;;;;;;;;;28.00;75.10;;;27.14;64.22;100173.66;9740950;29;97534;-84
2023/08/22 19:16:23;;;;;;;;;;;28.00;75.50;;;27.06;66.11;100182.44;9732016;29;98535;-84
2023/08/22 19:21:27;;;;;;;;;;;27.90;76.00;;;26.96;67.65;100187.88;9749804;29;96737;-85
2023/08/22 19:26:30;;;;;;;;;;;27.80;78.70;;;26.73;67.52;100183.84;9752798;29;98561;-85
2023/08/22 19:31:34;;;;;;;;;;;27.60;80.90;;;26.53;67.60;100181.13;9746356;29;97994;-87
2023/08/22 19:36:38;;;;;;;;;;;27.30;80.10;;;26.38;67.32;100192.81;9739416;29;98317;-86
2023/08/22 19:41:42;;;;;;;;;;;27.20;80.40;;;26.25;67.48;100196.91;9736296;29;98543;-86
2023/08/22 19:46:45;;;;;;;;;;;27.10;82.10;;;26.20;66.38;100188.72;9744560;29;97522;-86
2023/08/22 19:51:49;;;;;;;;;;;26.90;81.20;;;26.27;65.51;100183.00;9751782;29;96661;-87
2023/08/22 19:56:52;;;;;;;;;;;27.00;78.10;;;26.26;68.27;100168.56;9725885;29;96707;-85
2023/08/22 20:01:58;;;;;;;;;;;27.00;79.30;;;26.20;69.13;100169.66;9743772;29;97099;-86
2023/08/22 20:07:03;;;;;;;;;;;27.00;79.80;;;26.13;69.75;100174.56;9745351;29;97933;-86
2023/08/22 20:12:07;;;;;;;;;;;27.00;80.90;;;26.06;69.88;100176.75;9754229;29;99418;-86
2023/08/22 20:17:10;;;;;;;;;;;26.90;81.80;;;25.94;71.46;100171.56;9747707;29;98318;-85
2023/08/22 20:22:14;;;;;;;;;;;26.80;81.20;;;25.85;71.66;100168.56;9731334;29;96733;-85
2023/08/22 20:27:17;;;;;;;;;;;26.70;82.30;;;25.79;71.72;100168.78;9762351;29;98453;-85
2023/08/22 20:32:21;;;;;;;;;;;26.60;82.00;;;25.69;72.53;100157.88;9753317;29;98700;-85
2023/08/22 20:37:24;;;;;;;;;;;26.60;83.20;;;25.54;74.56;100166.78;9761391;29;98290;-85
2023/08/22 20:42:28;;;;;;;;;;;26.40;86.50;;;25.31;75.14;100151.78;9726422;29;96820;-85
2023/08/22 20:47:32;;;;;;;;;;;26.10;86.40;;;25.21;74.32;100146.28;9744376;29;97655;-85
2023/08/22 20:52:35;;;;;;;;;;;26.00;85.90;;;25.15;74.52;100159.03;9741181;29;98718;-85
2023/08/22 20:57:39;;;;;;;;;;;25.90;86.60;;;25.05;73.99;100154.38;9748719;29;96704;-84
2023/08/22 21:02:43;;;;;;;;;;;25.80;85.80;;;24.99;74.12;100151.84;9751938;29;96886;-85
2023/08/22 21:07:48;;;;;;;;;;;25.80;86.00;;;24.83;74.39;100146.34;9761636;29;96888;-86
2023/08/22 21:12:52;;;;;;;;;;;25.70;87.30;;;24.77;74.73;100155.56;9741559;29;100601;-85
2023/08/22 21:17:55;;;;;;;;;;;25.60;87.40;;;24.72;74.73;100166.38;9733902;29;97995;-84
2023/08/22 21:22:59;;;;;;;;;;;25.50;87.10;;;24.62;76.07;100160.06;9745481;29;96737;-84
2023/08/22 21:28:03;;;;;;;;;;;25.40;88.10;;;24.49;77.85;100166.78;9731973;29;96607;-84
2023/08/22 21:33:07;;;;;;;;;;;25.30;89.70;;;24.40;78.90;100179.19;9749211;29;97106;-85
2023/08/22 21:38:12;;;;;;;;;;;25.10;90.00;;;24.30;80.19;100169.84;9720156;29;96633;-85
2023/08/22 21:43:16;;;;;;;;;;;25.10;90.50;;;24.21;79.39;100176.00;9726560;29;98279;-85
2023/08/22 21:48:19;;;;;;;;;;;25.00;90.20;;;24.13;79.49;100179.19;9728323;29;96798;-85
2023/08/22 21:53:23;;;;;;;;;;;24.90;90.40;;;24.14;79.17;100181.66;9754043;29;98518;-85
2023/08/22 21:58:27;;;;;;;;;;;24.90;90.30;;;24.14;78.38;100178.94;9747758;29;96655;-85
2023/08/22 22:03:30;;;;;;;;;;;24.90;90.00;;;24.09;78.98;100173.47;9741828;29;97744;-85
2023/08/22 22:08:37;;;;;;;;;;;24.90;90.60;;;24.09;79.33;100184.31;9743399;29;97143;-84
2023/08/22 22:13:40;;;;;;;;;;;24.90;90.80;;;24.04;78.71;100184.25;9749239;29;97582;-85
2023/08/22 22:18:44;;;;;;;;;;;24.80;90.90;;;24.00;79.17;100183.16;9724836;29;98850;-85
2023/08/22 22:23:47;;;;;;;;;;;24.80;90.90;;;23.97;78.91;100180.94;9758081;29;98344;-84
2023/08/22 22:28:51;;;;;;;;;;;24.80;90.80;;;23.99;78.36;100179.63;9744752;29;97735;-85
2023/08/22 22:33:54;;;;;;;;;;;24.80;90.60;;;23.97;77.50;100173.63;9744551;29;97973;-85
2023/08/22 22:38:58;;;;;;;;;;;24.80;89.10;;;23.98;77.43;100179.84;9730887;29;98650;-85
2023/08/22 22:44:02;;;;;;;;;;;24.90;89.80;;;23.99;76.99;100168.78;9749994;29;97259;-84
2023/08/22 22:49:05;;;;;;;;;;;24.90;90.30;;;24.00;76.96;100172.31;9734298;29;97644;-84
2023/08/22 22:54:09;;;;;;;;;;;24.80;90.20;;;23.95;77.53;100158.69;9720992;29;98134;-84
2023/08/22 22:59:12;;;;;;;;;;;24.80;90.40;;;23.83;78.69;100149.88;9761266;29;98331;-84
2023/08/22 23:04:16;;;;;;;;;;;24.70;91.10;;;23.67;80.36;100157.84;9762329;29;96807;-85